createdAt,value
2023-09-01T00:01:11.037Z,3.35
2023-09-01T00:04:17.282Z,3.80
2023-09-01T00:07:03.600Z,3.53
2023-09-01T00:09:51.958Z,3.25
2023-09-01T00:13:14.640Z,3.70
2023-09-01T00:16:00.829Z,3.97
2023-09-01T00:18:47.138Z,4.30
2023-09-01T00:21:16.120Z,4.45
2023-09-01T00:23:43.748Z,4.53
2023-09-01T00:26:11.457Z,4.82
2023-09-01T00:28:40.729Z,5.18
2023-09-01T00:31:08.441Z,4.70
2023-09-01T00:33:36.150Z,5.05
2023-09-01T00:36:04.378Z,5.60
2023-09-01T00:38:33.558Z,4.97
2023-09-01T00:41:01.488Z,4.97
2023-09-01T00:43:29.072Z,4.53
2023-09-01T00:45:58.058Z,3.90
2023-09-01T00:48:26.753Z,3.53
2023-09-01T00:50:54.406Z,3.53
2023-09-01T00:53:23.670Z,3.28
2023-09-01T00:55:53.869Z,3.70
2023-09-01T00:58:21.626Z,3.00
2023-09-01T01:00:49.688Z,3.17
2023-09-01T01:03:17.552Z,3.33
2023-09-01T01:06:01.456Z,3.20
2023-09-01T01:08:36.561Z,3.45
2023-09-01T01:11:15.344Z,2.90
2023-09-01T01:13:48.396Z,2.95
2023-09-01T01:16:19.088Z,3.42
2023-09-01T01:18:49.719Z,2.78
2023-09-01T01:21:24.056Z,3.38
2023-09-01T01:23:54.708Z,3.20
2023-09-01T01:26:24.330Z,3.42
2023-09-01T01:28:51.941Z,2.85
2023-09-01T01:31:19.785Z,3.30
2023-09-01T01:33:54.549Z,2.90
2023-09-01T01:36:32.335Z,3.33
2023-09-01T01:39:05.814Z,2.90
2023-09-01T01:41:42.240Z,2.65
2023-09-01T01:44:12.317Z,2.63
2023-09-01T01:46:41.791Z,2.90
2023-09-01T01:49:12.778Z,3.05
2023-09-01T01:51:40.380Z,2.90
2023-09-01T01:57:49.992Z,2.83
2023-09-01T02:00:18.000Z,2.83
2023-09-01T02:02:45.603Z,2.80
2023-09-01T02:05:13.494Z,3.13
2023-09-01T02:07:41.105Z,3.30
2023-09-01T02:10:11.446Z,3.22
2023-09-01T02:12:39.456Z,3.22
2023-09-01T02:15:11.751Z,3.13
2023-09-01T02:17:39.808Z,2.95
2023-09-01T02:20:17.517Z,2.92
2023-09-01T02:26:09.525Z,3.25
2023-09-01T02:28:37.170Z,2.80
2023-09-01T02:31:23.871Z,3.10
2023-09-01T02:33:51.532Z,3.20
2023-09-01T02:36:28.043Z,3.75
2023-09-01T02:38:56.252Z,3.75
2023-09-01T02:41:26.383Z,3.13
2023-09-01T02:43:54.883Z,3.35
2023-09-01T02:46:22.868Z,3.17
2023-09-01T02:48:50.663Z,3.63
2023-09-01T02:51:18.316Z,3.42
2023-09-01T02:53:46.153Z,3.92
2023-09-01T02:56:13.778Z,3.72
2023-09-01T02:58:42.762Z,3.30
2023-09-01T03:01:12.394Z,3.58
2023-09-01T03:03:42.039Z,3.53
2023-09-01T03:06:10.588Z,3.40
2023-09-01T03:08:40.316Z,3.63
2023-09-01T03:11:08.492Z,4.00
2023-09-01T03:13:36.097Z,3.13
2023-09-01T03:16:06.087Z,3.08
2023-09-01T03:18:34.684Z,3.05
2023-09-01T03:21:11.131Z,3.90
2023-09-01T03:23:38.790Z,3.00
2023-09-01T03:26:06.823Z,3.13
2023-09-01T03:28:34.985Z,3.10
2023-09-01T03:31:10.460Z,3.47
2023-09-01T03:33:39.968Z,2.88
2023-09-01T03:36:09.364Z,3.25
2023-09-01T03:38:37.422Z,3.65
2023-09-01T03:41:06.269Z,3.63
2023-09-01T03:43:34.044Z,3.72
2023-09-01T03:46:01.986Z,3.50
2023-09-01T03:48:30.986Z,3.05
2023-09-01T03:51:09.495Z,3.08
2023-09-01T03:53:38.500Z,3.00
2023-09-01T03:56:09.499Z,3.13
2023-09-01T03:58:39.276Z,3.35
2023-09-01T04:01:10.305Z,3.53
2023-09-01T04:03:39.522Z,2.88
2023-09-01T04:06:07.268Z,3.63
2023-09-01T04:08:35.756Z,3.15
2023-09-01T04:11:04.350Z,3.53
2023-09-01T04:13:32.735Z,3.42
2023-09-01T04:16:00.764Z,3.13
2023-09-01T04:18:28.698Z,3.30
2023-09-01T04:20:57.686Z,3.05
2023-09-01T04:23:25.441Z,3.13
2023-09-01T04:25:53.211Z,3.70
2023-09-01T04:28:25.210Z,3.38
2023-09-01T04:30:52.841Z,3.38
2023-09-01T04:33:20.554Z,3.78
2023-09-01T04:35:58.604Z,3.30
2023-09-01T04:38:26.268Z,3.15
2023-09-01T04:40:57.637Z,3.88
2023-09-01T04:43:26.626Z,3.50
2023-09-01T04:45:58.609Z,3.50
2023-09-01T04:48:27.416Z,2.97
2023-09-01T04:50:55.354Z,3.40
2023-09-01T04:53:25.551Z,3.00
2023-09-01T04:55:53.746Z,3.25
2023-09-01T04:58:21.519Z,3.25
2023-09-01T05:00:49.254Z,3.45
2023-09-01T05:03:17.014Z,3.15
2023-09-01T05:05:44.857Z,3.50
2023-09-01T05:08:12.833Z,3.22
2023-09-01T05:10:42.380Z,3.80
2023-09-01T05:13:09.998Z,3.13
2023-09-01T05:15:37.973Z,3.63
2023-09-01T05:18:06.283Z,3.22
2023-09-01T05:20:33.966Z,3.03
2023-09-01T05:23:01.682Z,3.20
2023-09-01T05:25:29.569Z,3.45
2023-09-01T05:28:00.611Z,3.05
2023-09-01T05:30:28.555Z,2.97
2023-09-01T05:32:56.342Z,3.72
2023-09-01T05:35:23.984Z,3.00
2023-09-01T05:37:52.336Z,3.40
2023-09-01T05:40:20.208Z,3.67
2023-09-01T05:42:47.810Z,3.08
2023-09-01T05:45:18.062Z,3.63
2023-09-01T05:47:45.854Z,3.13
2023-09-01T05:50:13.689Z,3.25
2023-09-01T05:52:41.362Z,3.30
2023-09-01T05:55:09.591Z,3.60
2023-09-01T05:57:37.243Z,3.63
2023-09-01T06:00:05.773Z,3.20
2023-09-01T06:02:41.568Z,3.00
2023-09-01T06:05:09.854Z,3.35
2023-09-01T06:07:38.440Z,3.40
2023-09-01T06:10:06.645Z,3.65
2023-09-01T06:12:34.248Z,3.67
2023-09-01T06:15:01.884Z,3.95
2023-09-01T06:17:44.059Z,3.90
2023-09-01T06:20:17.726Z,4.40
2023-09-01T06:22:47.510Z,4.18
2023-09-01T06:25:15.173Z,3.30
2023-09-01T06:27:42.819Z,3.17
2023-09-01T06:30:10.829Z,3.33
2023-09-01T06:32:38.521Z,3.05
2023-09-01T06:35:07.208Z,3.20
2023-09-01T06:37:36.325Z,3.60
2023-09-01T06:40:05.140Z,4.45
2023-09-01T06:42:32.830Z,4.43
2023-09-01T06:45:00.433Z,4.15
2023-09-01T06:47:28.031Z,4.18
2023-09-01T06:49:55.706Z,3.60
2023-09-01T06:52:23.397Z,3.33
2023-09-01T06:54:52.460Z,3.55
2023-09-01T06:57:20.115Z,3.33
2023-09-01T06:59:47.734Z,4.00
2023-09-01T07:02:15.372Z,4.00
2023-09-01T07:04:42.985Z,3.90
2023-09-01T07:07:10.614Z,3.70
2023-09-01T07:09:38.261Z,3.42
2023-09-01T07:12:09.138Z,3.53
2023-09-01T07:14:39.782Z,4.00
2023-09-01T07:17:07.404Z,4.43
2023-09-01T07:19:35.098Z,3.60
2023-09-01T07:22:04.284Z,4.13
2023-09-01T07:24:31.916Z,4.30
2023-09-01T07:26:59.928Z,4.22
2023-09-01T07:29:32.003Z,4.05
2023-09-01T07:32:00.762Z,3.55
2023-09-01T07:34:29.179Z,3.55
2023-09-01T07:36:56.849Z,3.42
2023-09-01T07:39:24.563Z,3.70
2023-09-01T07:41:52.239Z,4.10
2023-09-01T07:44:21.285Z,3.70
2023-09-01T07:46:50.421Z,3.67
2023-09-01T07:49:18.052Z,3.65
2023-09-01T07:51:45.763Z,4.10
2023-09-01T07:54:13.379Z,3.78
2023-09-01T07:56:41.140Z,4.28
2023-09-01T07:59:08.808Z,4.50
2023-09-01T08:01:36.642Z,4.65
2023-09-01T08:04:09.062Z,4.43
2023-09-01T08:06:36.725Z,4.30
2023-09-01T08:09:05.170Z,4.63
2023-09-01T08:11:32.894Z,4.70
2023-09-01T08:14:00.561Z,4.70
2023-09-01T08:16:28.286Z,4.60
2023-09-01T08:18:59.974Z,3.70
2023-09-01T08:21:31.532Z,4.00
2023-09-01T08:23:59.304Z,4.22
2023-09-01T08:26:27.217Z,4.47
2023-09-01T08:28:54.825Z,3.92
2023-09-01T08:31:22.796Z,3.95
2023-09-01T08:33:50.668Z,3.55
2023-09-01T08:36:18.271Z,5.05
2023-09-01T08:38:47.255Z,4.93
2023-09-01T08:41:15.058Z,4.00
2023-09-01T08:43:44.322Z,3.38
2023-09-01T08:46:15.580Z,3.53
2023-09-01T08:48:43.992Z,3.25
2023-09-01T08:51:15.674Z,2.85
2023-09-01T08:53:44.300Z,2.67
2023-09-01T08:56:13.419Z,2.83
2023-09-01T08:58:42.364Z,2.55
2023-09-01T09:01:13.333Z,2.53
2023-09-01T09:03:41.955Z,2.60
2023-09-01T09:06:14.739Z,2.88
2023-09-01T09:08:46.384Z,2.38
2023-09-01T09:11:16.136Z,2.45
2023-09-01T09:13:47.117Z,2.45
2023-09-01T09:16:21.873Z,2.10
2023-09-01T09:18:49.876Z,2.03
2023-09-01T09:21:28.561Z,2.75
2023-09-01T09:24:10.963Z,2.47
2023-09-01T09:26:44.854Z,2.35
2023-09-01T09:29:16.215Z,2.08
2023-09-01T09:31:45.566Z,2.40
2023-09-01T09:34:15.764Z,2.63
2023-09-01T09:36:43.670Z,2.65
2023-09-01T09:39:25.178Z,2.28
2023-09-01T09:41:54.647Z,2.25
2023-09-01T09:44:32.387Z,1.70
2023-09-01T09:47:00.191Z,1.67
2023-09-01T09:49:31.014Z,2.00
2023-09-01T09:52:02.523Z,2.05
2023-09-01T09:54:31.784Z,2.00
2023-09-01T09:57:05.835Z,1.90
2023-09-01T09:59:41.520Z,1.80
2023-09-01T10:02:20.127Z,2.05
2023-09-01T10:04:49.362Z,2.28
2023-09-01T10:07:18.809Z,2.03
2023-09-01T10:09:46.751Z,2.35
2023-09-01T10:12:16.368Z,2.50
2023-09-01T10:14:46.081Z,2.50
2023-09-01T10:17:15.240Z,2.33
2023-09-01T10:19:44.234Z,2.58
2023-09-01T10:22:11.911Z,2.45
2023-09-01T10:24:39.522Z,2.00
2023-09-01T10:27:08.124Z,2.65
2023-09-01T10:29:37.312Z,2.40
2023-09-01T10:32:18.305Z,2.60
2023-09-01T10:34:52.855Z,2.88
2023-09-01T10:37:28.212Z,2.88
2023-09-01T10:39:56.006Z,2.70
2023-09-01T10:42:41.744Z,5.55
2023-09-01T10:45:15.043Z,3.85
2023-09-01T10:47:53.121Z,3.42
2023-09-01T10:50:20.988Z,5.70
2023-09-01T10:53:21.951Z,6.82
2023-09-01T10:56:07.808Z,7.00
2023-09-01T10:58:46.769Z,4.43
2023-09-01T11:01:30.338Z,3.70
2023-09-01T11:04:18.456Z,3.00
2023-09-01T11:07:01.557Z,2.80
2023-09-01T11:09:48.002Z,2.78
2023-09-01T11:12:18.664Z,2.72
2023-09-01T11:14:57.066Z,2.90
2023-09-01T11:17:40.041Z,3.00
2023-09-01T11:20:10.988Z,2.85
2023-09-01T11:22:43.030Z,3.20
2023-09-01T11:25:16.098Z,3.40
2023-09-01T11:27:48.351Z,3.33
2023-09-01T11:30:18.643Z,3.35
2023-09-01T11:32:49.722Z,3.47
2023-09-01T11:35:28.172Z,3.72
2023-09-01T11:37:56.129Z,3.60
2023-09-01T11:40:26.294Z,3.30
2023-09-01T11:42:54.578Z,3.45
2023-09-01T11:45:22.409Z,3.05
2023-09-01T11:47:55.478Z,3.38
2023-09-01T11:50:23.477Z,3.35
2023-09-01T11:52:57.561Z,3.38
2023-09-01T11:55:36.354Z,4.13
2023-09-01T11:58:04.813Z,4.28
2023-09-01T12:00:34.398Z,4.60
2023-09-01T12:03:05.727Z,4.65
2023-09-01T12:05:34.526Z,4.80
2023-09-01T12:08:03.828Z,5.07
2023-09-01T12:10:32.051Z,4.60
2023-09-01T12:13:04.006Z,4.68
2023-09-01T12:15:31.663Z,5.15
2023-09-01T12:17:59.404Z,5.57
2023-09-01T12:20:28.508Z,4.95
2023-09-01T12:22:56.220Z,4.60
2023-09-01T12:25:23.943Z,4.18
2023-09-01T12:27:51.572Z,4.88
2023-09-01T12:30:19.373Z,4.82
2023-09-01T12:32:55.060Z,5.28
2023-09-01T12:35:22.724Z,5.57
2023-09-01T12:37:51.881Z,5.40
2023-09-01T12:40:19.845Z,5.68
2023-09-01T12:42:51.683Z,5.88
2023-09-01T12:45:20.149Z,6.05
2023-09-01T12:47:48.363Z,6.70
2023-09-01T12:50:16.540Z,4.45
2023-09-01T12:52:47.831Z,3.90
2023-09-01T12:55:19.524Z,3.92
2023-09-01T12:57:48.777Z,3.42
2023-09-01T13:00:20.286Z,3.20
2023-09-01T13:02:51.386Z,3.63
2023-09-01T13:05:20.479Z,2.75
2023-09-01T13:07:48.468Z,3.30
2023-09-01T13:10:19.289Z,2.88
2023-09-01T13:12:47.698Z,3.35
2023-09-01T13:15:19.198Z,3.70
2023-09-01T13:17:48.327Z,3.63
2023-09-01T13:20:18.273Z,2.83
2023-09-01T13:22:46.169Z,3.15
2023-09-01T13:25:13.930Z,3.45
2023-09-01T13:27:43.023Z,3.40
2023-09-01T13:30:10.925Z,2.70
2023-09-01T13:32:38.666Z,2.70
2023-09-01T13:35:07.745Z,3.10
2023-09-01T13:37:35.472Z,3.35
2023-09-01T13:40:03.754Z,3.90
2023-09-01T13:42:31.359Z,3.80
2023-09-01T13:45:00.772Z,3.95
2023-09-01T13:47:28.776Z,3.80
2023-09-01T13:49:56.818Z,4.15
2023-09-01T13:52:24.844Z,3.78
2023-09-01T13:54:53.668Z,4.93
2023-09-01T13:57:21.855Z,5.43
2023-09-01T13:59:50.415Z,4.63
2023-09-01T14:02:19.828Z,4.97
2023-09-01T14:04:50.685Z,4.97
2023-09-01T14:07:18.875Z,5.30
2023-09-01T14:09:46.515Z,5.20
2023-09-01T14:12:14.196Z,4.47
2023-09-01T14:14:41.860Z,4.88
2023-09-01T14:17:09.493Z,5.20
2023-09-01T14:19:49.050Z,5.15
2023-09-01T14:22:16.756Z,4.95
2023-09-01T14:24:44.521Z,4.07
2023-09-01T14:27:12.206Z,3.72
2023-09-01T14:29:40.728Z,4.03
2023-09-01T14:32:08.365Z,3.58
2023-09-01T14:34:36.731Z,5.55
2023-09-01T14:37:05.864Z,5.50
2023-09-01T14:39:33.540Z,3.83
2023-09-01T14:42:02.834Z,2.53
2023-09-01T14:44:30.995Z,1.55
2023-09-01T14:46:58.672Z,1.40
2023-09-01T14:49:26.542Z,1.55
2023-09-01T14:51:54.356Z,2.08
2023-09-01T14:54:25.682Z,1.95
2023-09-01T14:56:54.785Z,1.52
2023-09-01T14:59:22.407Z,1.40
2023-09-01T15:01:50.926Z,2.10
2023-09-01T15:04:18.723Z,1.40
2023-09-01T15:06:46.439Z,1.15
2023-09-01T15:09:16.971Z,1.23
2023-09-01T15:11:46.133Z,1.70
2023-09-01T15:14:13.800Z,2.55
2023-09-01T15:16:44.993Z,4.43
2023-09-01T15:19:14.061Z,2.63
2023-09-01T15:21:41.985Z,2.40
2023-09-01T15:24:09.856Z,2.92
2023-09-01T15:26:37.471Z,3.45
2023-09-01T15:29:06.494Z,3.45
2023-09-01T15:31:34.142Z,3.83
2023-09-01T15:34:03.603Z,3.83
2023-09-01T15:36:31.201Z,4.53
2023-09-01T15:38:58.780Z,4.35
2023-09-01T15:41:26.372Z,4.20
2023-09-01T15:43:54.035Z,4.07
2023-09-01T15:46:23.085Z,3.85
2023-09-01T15:48:50.793Z,3.92
2023-09-01T15:51:19.069Z,3.45
2023-09-01T15:53:46.680Z,4.07
2023-09-01T15:56:14.329Z,4.13
2023-09-01T15:58:41.992Z,4.20
2023-09-01T16:01:24.683Z,4.30
2023-09-01T16:04:04.474Z,4.80
2023-09-01T16:06:34.379Z,4.28
2023-09-01T16:09:02.464Z,4.53
2023-09-01T16:11:30.339Z,9.27
2023-09-01T16:13:57.988Z,4.57
2023-09-01T16:16:26.707Z,3.70
2023-09-01T16:18:54.292Z,3.45
2023-09-01T16:21:23.299Z,3.67
2023-09-01T16:23:50.892Z,3.33
2023-09-01T16:26:18.547Z,2.90
2023-09-01T16:28:46.152Z,2.33
2023-09-01T16:31:13.830Z,2.28
2023-09-01T16:33:41.436Z,1.70
2023-09-01T16:36:12.113Z,1.58
2023-09-01T16:38:43.594Z,1.52
2023-09-01T16:41:11.159Z,1.42
2023-09-01T16:43:38.748Z,1.42
2023-09-01T16:46:06.367Z,1.67
2023-09-01T16:48:34.438Z,1.77
2023-09-01T16:51:04.109Z,1.55
2023-09-01T16:53:32.314Z,1.20
2023-09-01T16:56:01.524Z,2.17
2023-09-01T16:58:29.192Z,1.50
2023-09-01T17:00:56.845Z,1.77
2023-09-01T17:03:24.613Z,1.20
2023-09-01T17:05:52.429Z,1.30
2023-09-01T17:08:20.119Z,1.65
2023-09-01T17:10:47.781Z,1.50
2023-09-01T17:13:16.980Z,1.33
2023-09-01T17:15:44.813Z,1.35
2023-09-01T17:18:12.496Z,1.55
2023-09-01T17:20:54.167Z,1.70
2023-09-01T17:23:22.101Z,2.03
2023-09-01T17:25:49.810Z,1.70
2023-09-01T17:28:18.977Z,1.23
2023-09-01T17:30:46.773Z,1.27
2023-09-01T17:33:14.982Z,1.10
2023-09-01T17:35:42.806Z,1.80
2023-09-01T17:38:10.404Z,1.88
2023-09-01T17:40:39.331Z,1.23
2023-09-01T17:43:06.991Z,1.38
2023-09-01T17:45:36.075Z,1.48
2023-09-01T17:48:04.375Z,1.00
2023-09-01T17:50:32.194Z,1.30
2023-09-01T17:53:00.041Z,1.10
2023-09-01T17:55:27.799Z,1.13
2023-09-01T17:57:55.577Z,1.30
2023-09-01T18:00:23.225Z,1.33
2023-09-01T18:02:57.465Z,1.20
2023-09-01T18:05:25.730Z,1.30
2023-09-01T18:07:53.638Z,1.05
2023-09-01T18:10:21.532Z,1.25
2023-09-01T18:12:49.492Z,1.60
2023-09-01T18:15:18.623Z,1.67
2023-09-01T18:17:46.386Z,2.05
2023-09-01T18:20:18.768Z,2.30
2023-09-01T18:22:51.278Z,2.20
2023-09-01T18:25:18.937Z,2.90
2023-09-01T18:27:48.653Z,2.22
2023-09-01T18:30:17.995Z,2.70
2023-09-01T18:32:48.691Z,2.67
2023-09-01T18:35:21.306Z,2.65
2023-09-01T18:37:49.012Z,2.80
2023-09-01T18:40:23.469Z,2.85
2023-09-01T18:42:52.616Z,2.75
2023-09-01T18:45:25.414Z,2.60
2023-09-01T18:47:54.166Z,2.40
2023-09-01T18:50:24.293Z,2.60
2023-09-01T18:52:55.699Z,2.70
2023-09-01T18:55:23.704Z,2.28
2023-09-01T18:57:52.113Z,2.70
2023-09-01T19:00:24.901Z,1.77
2023-09-01T19:02:53.266Z,1.85
2023-09-01T19:05:27.898Z,1.58
2023-09-01T19:07:56.306Z,1.95
2023-09-01T19:10:24.736Z,7.07
2023-09-01T19:12:54.593Z,3.00
2023-09-01T19:15:22.803Z,2.42
2023-09-01T19:17:50.861Z,2.00
2023-09-01T19:20:26.561Z,2.28
2023-09-01T19:22:54.885Z,2.00
2023-09-01T19:25:22.580Z,2.78
2023-09-01T19:28:05.326Z,2.17
2023-09-01T19:30:38.742Z,2.08
2023-09-01T19:33:22.039Z,1.92
2023-09-01T19:35:52.194Z,1.92
2023-09-01T19:38:28.815Z,2.72
2023-09-01T19:40:59.714Z,2.17
2023-09-01T19:43:27.672Z,2.78
2023-09-01T19:45:58.594Z,2.83
2023-09-01T19:48:31.209Z,2.83
2023-09-01T19:51:04.251Z,3.00
2023-09-01T19:53:33.725Z,2.75
2023-09-01T19:56:15.194Z,3.10
2023-09-01T19:58:45.500Z,3.53
2023-09-01T20:01:23.439Z,3.25
2023-09-01T20:03:51.411Z,3.42
2023-09-01T20:06:24.001Z,2.65
2023-09-01T20:08:51.610Z,3.00
2023-09-01T20:11:20.569Z,3.25
2023-09-01T20:13:49.065Z,3.55
2023-09-01T20:16:17.510Z,3.42
2023-09-01T20:18:45.154Z,3.30
2023-09-01T20:21:14.614Z,3.65
2023-09-01T20:23:43.590Z,3.67
2023-09-01T20:26:11.247Z,3.60
2023-09-01T20:28:38.896Z,4.07
2023-09-01T20:31:06.898Z,3.67
2023-09-01T20:33:34.535Z,4.00
2023-09-01T20:36:02.189Z,4.57
2023-09-01T20:38:30.466Z,5.30
2023-09-01T20:40:59.506Z,4.93
2023-09-01T20:43:27.405Z,4.88
2023-09-01T20:45:56.491Z,5.80
2023-09-01T20:48:24.396Z,5.00
2023-09-01T20:50:52.034Z,4.13
2023-09-01T20:53:19.862Z,3.90
2023-09-01T20:55:47.551Z,3.60
2023-09-01T20:58:17.701Z,3.13
2023-09-01T21:00:45.353Z,3.28
2023-09-01T21:03:13.062Z,3.05
2023-09-01T21:05:40.874Z,2.83
2023-09-01T21:08:08.513Z,3.30
2023-09-01T21:10:36.144Z,2.90
2023-09-01T21:13:03.919Z,2.42
2023-09-01T21:15:32.890Z,2.80
2023-09-01T21:18:00.717Z,2.50
2023-09-01T21:20:28.435Z,2.42
2023-09-01T21:22:56.011Z,2.08
2023-09-01T21:25:23.578Z,2.35
2023-09-01T21:27:51.388Z,2.58
2023-09-01T21:30:19.321Z,2.20
2023-09-01T21:32:48.572Z,2.63
2023-09-01T21:35:16.639Z,2.20
2023-09-01T21:37:44.298Z,2.80
2023-09-01T21:40:12.231Z,2.50
2023-09-01T21:42:40.780Z,2.60
2023-09-01T21:45:09.548Z,2.60
2023-09-01T21:47:37.307Z,4.32
2023-09-01T21:50:07.686Z,4.28
2023-09-01T21:52:35.272Z,3.90
2023-09-01T21:55:02.853Z,3.35
2023-09-01T21:57:30.898Z,4.72
2023-09-01T21:59:58.774Z,4.00
2023-09-01T22:02:26.516Z,3.70
2023-09-01T22:04:54.337Z,4.40
2023-09-01T22:07:23.274Z,4.47
2023-09-01T22:09:51.464Z,3.97
2023-09-01T22:12:19.870Z,3.90
2023-09-01T22:14:48.228Z,4.22
2023-09-01T22:17:16.985Z,4.05
2023-09-01T22:19:44.626Z,3.95
2023-09-01T22:22:12.249Z,3.60
2023-09-01T22:24:41.192Z,3.60
2023-09-01T22:27:08.880Z,3.40
2023-09-01T22:29:36.477Z,3.40
2023-09-01T22:32:09.004Z,2.97
2023-09-01T22:34:36.695Z,2.63
2023-09-01T22:37:05.430Z,3.00
2023-09-01T22:39:33.517Z,2.83
2023-09-01T22:42:02.569Z,3.10
2023-09-01T22:44:30.210Z,2.90
2023-09-01T22:46:58.017Z,3.10
2023-09-01T22:49:25.798Z,3.15
2023-09-01T22:51:53.387Z,2.80
2023-09-01T22:54:20.963Z,2.97
2023-09-01T22:56:48.542Z,3.00
2023-09-01T22:59:17.490Z,2.80
2023-09-01T23:01:45.131Z,3.25
2023-09-01T23:04:12.897Z,2.95
2023-09-01T23:06:40.837Z,3.08
2023-09-01T23:09:08.475Z,2.65
2023-09-01T23:11:36.075Z,3.08
2023-09-01T23:14:04.339Z,2.97
2023-09-01T23:16:33.648Z,3.53
2023-09-01T23:19:01.350Z,3.03
2023-09-01T23:21:29.212Z,2.92
2023-09-01T23:23:57.143Z,3.05
2023-09-01T23:26:25.975Z,3.40
2023-09-01T23:28:53.750Z,3.17
2023-09-01T23:31:21.898Z,3.03
2023-09-01T23:33:50.919Z,3.47
2023-09-01T23:36:18.514Z,3.15
2023-09-01T23:38:46.095Z,3.13
2023-09-01T23:41:13.683Z,3.08
2023-09-01T23:43:41.281Z,3.45
2023-09-01T23:46:08.916Z,3.15
2023-09-01T23:48:36.514Z,3.15
2023-09-01T23:51:05.527Z,3.60
2023-09-01T23:53:33.152Z,3.28
2023-09-01T23:56:01.193Z,3.90
2023-09-01T23:58:28.786Z,4.07
